Mako, Hungary
Current Conditions -  °F | °C
As of 1:45 AM on Sunday 26 Oct 2014 (Local Time) from LHUD Reporting Station
Haze Haze  
Wind Chill: 46°   Ceiling: 2000
Heat Index: 46°   Visibility: 2.8mi
Dew Point: 45°   Wind: 0mph
Humidity: 93%   Direction: NA
Pressure: 30.33"   Gusts: NA
Location:  46.22°N, 20.47°E
Report Text: LHUD 252345Z 00000KT 4500 BR BKN020 08/07 Q1027
Loading
Personal Weather Stations






























Interactive Weather Map
Tropical Storm Tracking
New forecast layout! Learn more

10-Day Weather Forecast

Advertisements
Track Severe Weather on mobile